createdAt,value
2017-05-31T00:00:03.010Z,7.22
2017-05-31T00:02:29.942Z,6.20
2017-05-31T00:04:57.226Z,6.06
2017-05-31T00:07:24.166Z,6.54
2017-05-31T00:09:51.506Z,5.76
2017-05-31T00:12:18.786Z,7.66
2017-05-31T00:14:46.102Z,6.42
2017-05-31T00:17:13.385Z,9.42
2017-05-31T00:19:40.717Z,5.94
2017-05-31T00:22:08.072Z,5.90
2017-05-31T00:24:35.433Z,6.02
2017-05-31T00:27:02.801Z,6.38
2017-05-31T00:29:29.730Z,5.76
2017-05-31T00:31:57.021Z,5.82
2017-05-31T00:34:24.346Z,5.84
2017-05-31T00:36:51.638Z,6.62
2017-05-31T00:39:18.949Z,6.10
2017-05-31T00:41:46.285Z,6.72
2017-05-31T00:44:13.181Z,5.38
2017-05-31T00:46:40.506Z,5.38
2017-05-31T00:49:07.870Z,5.64
2017-05-31T00:51:34.809Z,6.08
2017-05-31T00:54:02.189Z,5.88
2017-05-31T00:56:29.078Z,5.98
2017-05-31T00:58:56.374Z,5.74
2017-05-31T01:01:23.700Z,5.10
2017-05-31T01:03:50.981Z,5.26
2017-05-31T01:06:18.329Z,5.10
2017-05-31T01:08:45.658Z,4.62
2017-05-31T01:11:12.999Z,5.14
2017-05-31T01:13:40.293Z,4.82
2017-05-31T01:16:07.221Z,5.10
2017-05-31T01:18:34.714Z,5.06
2017-05-31T01:21:02.434Z,4.86
2017-05-31T01:23:29.746Z,4.62
2017-05-31T01:25:57.039Z,4.32
2017-05-31T01:28:24.421Z,4.84
2017-05-31T01:30:51.766Z,4.10
2017-05-31T01:33:18.653Z,4.08
2017-05-31T01:35:45.986Z,4.62
2017-05-31T01:38:12.878Z,3.80
2017-05-31T01:40:40.167Z,5.84
2017-05-31T01:43:07.118Z,5.14
2017-05-31T01:45:34.005Z,3.70
2017-05-31T01:48:00.896Z,4.52
2017-05-31T01:50:28.229Z,4.26
2017-05-31T01:52:55.229Z,4.24
2017-05-31T01:55:22.588Z,4.48
2017-05-31T01:57:49.911Z,4.66
2017-05-31T02:00:17.198Z,4.20
2017-05-31T02:02:44.155Z,4.20
2017-05-31T02:05:11.488Z,3.32
2017-05-31T02:07:38.850Z,4.00
2017-05-31T02:10:06.243Z,5.28
2017-05-31T02:12:33.686Z,4.10
2017-05-31T02:15:01.018Z,4.82
2017-05-31T02:17:28.315Z,4.24
2017-05-31T02:19:55.645Z,4.24
2017-05-31T02:22:22.930Z,3.98
2017-05-31T02:24:50.238Z,3.64
2017-05-31T02:27:17.581Z,4.00
2017-05-31T02:29:44.949Z,4.64
2017-05-31T02:32:12.234Z,3.86
2017-05-31T02:34:39.670Z,3.72
2017-05-31T02:37:07.027Z,4.58
2017-05-31T02:39:34.316Z,3.54
2017-05-31T02:42:01.762Z,4.06
2017-05-31T02:44:28.782Z,5.20
2017-05-31T02:46:56.137Z,4.10
2017-05-31T02:49:23.034Z,3.50
2017-05-31T02:51:50.449Z,3.52
2017-05-31T02:54:17.390Z,4.14
2017-05-31T02:56:44.689Z,3.78
2017-05-31T02:59:12.157Z,5.16
2017-05-31T03:01:39.446Z,4.18
2017-05-31T03:04:06.818Z,4.04
2017-05-31T03:06:34.149Z,3.64
2017-05-31T03:09:01.446Z,3.58
2017-05-31T03:11:28.731Z,3.80
2017-05-31T03:13:56.139Z,5.20
2017-05-31T03:16:23.491Z,3.82
2017-05-31T03:18:50.950Z,3.34
2017-05-31T03:21:18.314Z,4.22
2017-05-31T03:23:45.594Z,4.42
2017-05-31T03:26:12.920Z,3.28
2017-05-31T03:28:40.314Z,3.72
2017-05-31T03:31:07.220Z,3.78
2017-05-31T03:33:34.585Z,5.72
2017-05-31T03:36:01.903Z,3.94
2017-05-31T03:38:29.281Z,3.92
2017-05-31T03:40:56.622Z,4.00
2017-05-31T03:43:23.994Z,3.54
2017-05-31T03:45:51.350Z,3.62
2017-05-31T03:48:18.685Z,3.78
2017-05-31T03:50:46.014Z,3.74
2017-05-31T03:53:13.302Z,2.90
2017-05-31T03:55:40.231Z,3.24
2017-05-31T03:58:07.613Z,4.86
2017-05-31T04:00:34.546Z,3.28
2017-05-31T04:03:01.929Z,3.04
2017-05-31T04:05:29.275Z,3.62
2017-05-31T04:07:56.645Z,6.30
2017-05-31T04:10:23.578Z,3.00
2017-05-31T04:12:50.863Z,3.40
2017-05-31T04:15:18.181Z,6.70
2017-05-31T04:17:45.521Z,5.20
2017-05-31T04:20:12.898Z,4.82
2017-05-31T04:22:40.258Z,3.12
2017-05-31T04:25:07.587Z,3.68
2017-05-31T04:27:34.877Z,2.88
2017-05-31T04:30:02.262Z,3.56
2017-05-31T04:32:29.674Z,7.18
2017-05-31T04:34:56.633Z,3.56
2017-05-31T04:37:23.542Z,5.16
2017-05-31T04:39:50.862Z,3.32
2017-05-31T04:42:18.142Z,3.78
2017-05-31T04:44:45.450Z,3.92
2017-05-31T04:47:12.896Z,3.94
2017-05-31T04:49:40.174Z,3.64
2017-05-31T04:52:07.469Z,4.72
2017-05-31T04:54:34.455Z,3.76
2017-05-31T04:57:01.736Z,4.14
2017-05-31T04:59:28.662Z,3.56
2017-05-31T05:01:56.052Z,4.32
2017-05-31T05:04:23.362Z,4.72
2017-05-31T05:06:50.732Z,4.20
2017-05-31T05:09:18.180Z,5.18
2017-05-31T05:11:45.546Z,5.02
2017-05-31T05:14:12.522Z,6.86
2017-05-31T05:16:39.975Z,4.66
2017-05-31T05:19:07.271Z,4.70
2017-05-31T05:21:34.597Z,3.82
2017-05-31T05:24:01.910Z,4.20
2017-05-31T05:26:29.262Z,4.44
2017-05-31T05:28:56.247Z,4.78
2017-05-31T05:31:23.527Z,4.40
2017-05-31T05:33:50.918Z,4.60
2017-05-31T05:36:18.378Z,5.44
2017-05-31T05:38:45.662Z,6.20
2017-05-31T05:41:12.946Z,7.58
2017-05-31T05:43:40.341Z,5.30
2017-05-31T05:46:07.294Z,5.62
2017-05-31T05:48:34.593Z,5.40
2017-05-31T05:51:01.554Z,5.28
2017-05-31T05:53:28.848Z,5.14
2017-05-31T05:55:56.230Z,5.60
2017-05-31T05:58:23.582Z,7.10
2017-05-31T06:00:50.542Z,7.94
2017-05-31T06:03:17.829Z,7.06
2017-05-31T06:05:45.158Z,7.08
2017-05-31T06:08:12.469Z,6.84
2017-05-31T06:10:39.760Z,8.42
2017-05-31T06:13:07.098Z,6.74
2017-05-31T06:15:34.410Z,6.10
2017-05-31T06:18:01.386Z,5.70
2017-05-31T06:20:28.842Z,7.14
2017-05-31T06:22:56.131Z,6.66
2017-05-31T06:25:23.436Z,6.00
2017-05-31T06:27:50.770Z,6.76
2017-05-31T06:30:18.166Z,7.04
2017-05-31T06:32:45.524Z,6.54
2017-05-31T06:35:12.845Z,6.56
2017-05-31T06:37:40.142Z,7.94
2017-05-31T06:40:07.485Z,7.50
2017-05-31T06:42:34.844Z,9.52
2017-05-31T06:45:01.733Z,7.92
2017-05-31T06:47:29.022Z,8.22
2017-05-31T06:49:56.402Z,8.34
2017-05-31T06:52:23.746Z,8.90
2017-05-31T06:54:51.015Z,9.06
2017-05-31T06:57:18.362Z,8.42
2017-05-31T06:59:45.730Z,8.38
2017-05-31T07:02:13.077Z,9.44
2017-05-31T07:04:40.403Z,10.76
2017-05-31T07:07:07.699Z,11.26
2017-05-31T07:09:35.039Z,11.36
2017-05-31T07:12:02.382Z,10.40
2017-05-31T07:14:29.662Z,9.74
2017-05-31T07:16:57.005Z,9.70
2017-05-31T07:19:24.374Z,11.76
2017-05-31T07:21:51.718Z,11.44
2017-05-31T07:24:19.027Z,12.26
2017-05-31T07:26:46.025Z,11.50
2017-05-31T07:29:13.323Z,12.36
2017-05-31T07:31:40.607Z,11.46
2017-05-31T07:34:07.989Z,13.28
2017-05-31T07:36:35.347Z,12.02
2017-05-31T07:39:02.642Z,11.74
2017-05-31T07:41:29.973Z,11.78
2017-05-31T07:43:56.872Z,12.50
2017-05-31T07:46:24.258Z,13.64
2017-05-31T07:48:51.193Z,12.58
2017-05-31T07:51:18.589Z,12.86
2017-05-31T07:53:45.926Z,12.48
2017-05-31T07:56:12.849Z,12.68
2017-05-31T07:58:40.245Z,12.86
2017-05-31T08:01:07.609Z,10.82
2017-05-31T08:03:35.006Z,10.58
2017-05-31T08:06:02.332Z,10.30
2017-05-31T08:08:29.703Z,9.30
2017-05-31T08:10:56.990Z,8.70
2017-05-31T08:13:24.347Z,7.70
2017-05-31T08:15:51.698Z,8.82
2017-05-31T08:18:19.057Z,9.56
2017-05-31T08:20:46.018Z,7.22
2017-05-31T08:23:12.954Z,8.10
2017-05-31T08:25:40.241Z,7.64
2017-05-31T08:28:07.570Z,7.90
2017-05-31T08:30:34.918Z,7.42
2017-05-31T08:33:02.279Z,11.16
2017-05-31T08:35:29.582Z,9.34
2017-05-31T08:37:56.486Z,9.22
2017-05-31T08:40:23.424Z,7.68
2017-05-31T08:42:50.350Z,8.70
2017-05-31T08:45:17.764Z,7.96
2017-05-31T08:47:45.089Z,7.70
2017-05-31T08:50:12.457Z,7.60
2017-05-31T08:52:39.834Z,7.90
2017-05-31T08:55:07.122Z,6.60
2017-05-31T08:57:34.469Z,8.40
2017-05-31T09:00:01.769Z,8.80
2017-05-31T09:02:29.059Z,7.42
2017-05-31T09:04:56.417Z,7.78
2017-05-31T09:07:23.714Z,9.38
2017-05-31T09:09:51.085Z,9.12
2017-05-31T09:12:18.430Z,7.68
2017-05-31T09:14:45.793Z,8.38
2017-05-31T09:17:13.080Z,7.42
2017-05-31T09:19:40.506Z,8.28
2017-05-31T09:22:07.797Z,7.76
2017-05-31T09:24:35.152Z,6.42
2017-05-31T09:27:02.570Z,7.16
2017-05-31T09:29:29.870Z,6.78
2017-05-31T09:31:57.238Z,8.38
2017-05-31T09:34:24.542Z,7.22
2017-05-31T09:36:51.913Z,6.70
2017-05-31T09:39:19.268Z,5.86
2017-05-31T09:41:46.610Z,7.90
2017-05-31T09:44:13.922Z,5.88
2017-05-31T09:46:41.318Z,7.00
2017-05-31T09:49:08.674Z,6.96
2017-05-31T09:51:35.964Z,6.66
2017-05-31T09:54:03.386Z,6.48
2017-05-31T09:56:30.662Z,6.22
2017-05-31T09:58:58.086Z,5.50
2017-05-31T10:01:25.457Z,6.32
2017-05-31T10:03:52.861Z,6.64
2017-05-31T10:06:19.761Z,6.56
2017-05-31T10:08:47.095Z,6.36
2017-05-31T10:11:14.404Z,6.22
2017-05-31T10:13:41.689Z,7.30
2017-05-31T10:16:09.037Z,5.70
2017-05-31T10:18:36.469Z,5.92
2017-05-31T10:21:03.750Z,7.66
2017-05-31T10:23:31.101Z,8.12
2017-05-31T10:25:58.394Z,6.82
2017-05-31T10:28:25.689Z,6.06
2017-05-31T10:30:53.110Z,6.58
2017-05-31T10:33:20.485Z,5.94
2017-05-31T10:35:47.811Z,6.32
2017-05-31T10:38:15.178Z,6.10
2017-05-31T10:40:42.482Z,7.22
2017-05-31T10:43:09.821Z,6.60
2017-05-31T10:45:37.150Z,5.92
2017-05-31T10:48:04.512Z,5.86
2017-05-31T10:50:31.838Z,5.98
2017-05-31T10:52:59.214Z,5.98
2017-05-31T10:55:26.589Z,5.42
2017-05-31T10:57:54.030Z,6.70
2017-05-31T11:00:21.390Z,6.74
2017-05-31T11:02:48.744Z,7.08
2017-05-31T11:05:16.112Z,6.44
2017-05-31T11:07:43.396Z,6.98
2017-05-31T11:10:10.707Z,5.92
2017-05-31T11:12:37.701Z,7.08
2017-05-31T11:15:04.977Z,6.20
2017-05-31T11:17:32.370Z,6.12
2017-05-31T11:19:59.694Z,6.06
2017-05-31T11:22:26.990Z,6.06
2017-05-31T11:24:54.278Z,6.40
2017-05-31T11:27:21.687Z,5.94
2017-05-31T11:29:49.043Z,6.38
2017-05-31T11:32:16.372Z,6.02
2017-05-31T11:34:43.757Z,6.08
2017-05-31T11:37:11.377Z,5.90
2017-05-31T11:39:38.675Z,6.24
2017-05-31T11:42:06.005Z,5.70
2017-05-31T11:44:32.977Z,5.56
2017-05-31T11:47:00.303Z,4.98
2017-05-31T11:49:27.724Z,5.76
2017-05-31T11:51:54.619Z,5.80
2017-05-31T11:54:21.529Z,5.58
2017-05-31T11:56:48.946Z,4.86
2017-05-31T11:59:16.285Z,5.36
2017-05-31T12:01:43.653Z,5.10
2017-05-31T12:04:11.002Z,5.30
2017-05-31T12:06:37.989Z,5.50
2017-05-31T12:09:06.246Z,5.80
2017-05-31T12:11:33.582Z,4.66
2017-05-31T12:14:00.902Z,5.26
2017-05-31T12:16:28.227Z,5.28
2017-05-31T12:18:55.514Z,4.36
2017-05-31T12:21:22.799Z,4.14
2017-05-31T12:23:50.125Z,4.50
2017-05-31T12:26:17.415Z,6.30
2017-05-31T12:28:44.304Z,5.24
2017-05-31T12:31:11.686Z,5.72
2017-05-31T12:33:39.057Z,6.76
2017-05-31T12:36:06.395Z,5.22
2017-05-31T12:38:33.763Z,5.62
2017-05-31T12:41:01.049Z,4.82
2017-05-31T12:43:28.379Z,5.06
2017-05-31T12:45:55.410Z,5.18
2017-05-31T12:48:22.774Z,4.02
2017-05-31T12:50:50.141Z,4.02
2017-05-31T12:53:17.490Z,4.76
2017-05-31T12:55:44.798Z,4.14
2017-05-31T12:58:12.147Z,4.26
2017-05-31T13:00:39.511Z,4.44
2017-05-31T13:03:06.849Z,4.82
2017-05-31T13:05:34.169Z,4.88
2017-05-31T13:08:01.558Z,4.98
2017-05-31T13:10:28.925Z,5.14
2017-05-31T13:12:56.273Z,4.84
2017-05-31T13:15:23.658Z,4.42
2017-05-31T13:17:50.994Z,4.54
2017-05-31T13:20:18.597Z,4.20
2017-05-31T13:22:45.498Z,4.04
2017-05-31T13:25:12.446Z,3.68
2017-05-31T13:27:39.505Z,4.02
2017-05-31T13:30:06.792Z,3.78
2017-05-31T13:32:34.066Z,4.40
2017-05-31T13:35:01.392Z,3.94
2017-05-31T13:37:28.853Z,4.42
2017-05-31T13:39:56.158Z,5.28
2017-05-31T13:42:23.509Z,3.96
2017-05-31T13:44:50.838Z,6.82
2017-05-31T13:47:18.118Z,3.88
2017-05-31T13:49:45.437Z,4.50
2017-05-31T13:52:12.725Z,4.56
2017-05-31T13:54:40.023Z,4.46
2017-05-31T13:57:07.390Z,4.30
2017-05-31T13:59:34.669Z,4.10
2017-05-31T14:02:01.997Z,4.36
2017-05-31T14:04:29.325Z,5.14
2017-05-31T14:06:56.689Z,4.32
2017-05-31T14:09:24.034Z,3.84
2017-05-31T14:11:51.405Z,3.62
2017-05-31T14:14:18.705Z,4.66
2017-05-31T14:16:46.034Z,3.98
2017-05-31T14:19:13.385Z,4.12
2017-05-31T14:21:40.713Z,4.04
2017-05-31T14:24:08.002Z,4.30
2017-05-31T14:26:35.020Z,3.58
2017-05-31T14:29:02.361Z,3.54
2017-05-31T14:31:29.742Z,4.08
2017-05-31T14:33:57.210Z,3.78
2017-05-31T14:36:24.494Z,4.26
2017-05-31T14:38:51.789Z,3.54
2017-05-31T14:41:19.205Z,4.50
2017-05-31T14:43:46.565Z,3.98
2017-05-31T14:46:20.037Z,4.10
2017-05-31T14:48:48.000Z,3.88
2017-05-31T14:51:17.100Z,4.60
2017-05-31T14:53:44.389Z,3.92
2017-05-31T14:56:11.725Z,4.00
2017-05-31T14:58:38.657Z,4.10
2017-05-31T15:01:05.545Z,3.86
2017-05-31T15:03:32.565Z,3.82
2017-05-31T15:05:59.454Z,4.10
2017-05-31T15:08:26.762Z,4.06
2017-05-31T15:10:54.094Z,4.60
2017-05-31T15:13:21.378Z,4.32
2017-05-31T15:15:48.658Z,4.58
2017-05-31T15:18:16.067Z,3.60
2017-05-31T15:20:43.435Z,4.28
2017-05-31T15:23:10.750Z,3.24
2017-05-31T15:25:38.124Z,3.44
2017-05-31T15:28:05.475Z,3.00
2017-05-31T15:30:32.397Z,4.14
2017-05-31T15:32:59.776Z,5.32
2017-05-31T15:35:27.139Z,3.60
2017-05-31T15:37:54.426Z,3.24
2017-05-31T15:40:21.383Z,3.86
2017-05-31T15:42:48.662Z,3.18
2017-05-31T15:45:15.954Z,3.64
2017-05-31T15:47:43.298Z,2.80
2017-05-31T15:50:10.663Z,2.80
2017-05-31T15:52:38.001Z,3.40
2017-05-31T15:55:04.987Z,3.32
2017-05-31T15:57:31.890Z,3.06
2017-05-31T15:59:59.178Z,3.08
2017-05-31T16:02:26.725Z,6.32
2017-05-31T16:04:54.007Z,2.70
2017-05-31T16:07:21.317Z,3.24
2017-05-31T16:09:48.668Z,3.02
2017-05-31T16:12:16.042Z,4.54
2017-05-31T16:14:43.398Z,3.98
2017-05-31T16:17:10.754Z,3.58
2017-05-31T16:19:38.102Z,3.32
2017-05-31T16:22:05.385Z,2.70
2017-05-31T16:24:32.825Z,2.86
2017-05-31T16:27:00.170Z,2.38
2017-05-31T16:29:27.535Z,2.88
2017-05-31T16:31:54.473Z,2.50
2017-05-31T16:34:21.834Z,3.04
2017-05-31T16:36:49.182Z,2.60
2017-05-31T16:39:16.549Z,3.20
2017-05-31T16:41:43.924Z,2.56
2017-05-31T16:44:11.289Z,2.80
2017-05-31T16:46:38.632Z,2.58
2017-05-31T16:49:05.966Z,2.58
2017-05-31T16:51:33.254Z,3.24
2017-05-31T16:54:00.685Z,2.38
2017-05-31T16:56:27.622Z,2.60
2017-05-31T16:58:54.910Z,2.08
2017-05-31T17:01:22.278Z,3.20
2017-05-31T17:03:49.217Z,2.42
2017-05-31T17:06:16.494Z,2.42
2017-05-31T17:08:43.890Z,3.72
2017-05-31T17:11:11.241Z,2.76
2017-05-31T17:13:38.522Z,2.34
2017-05-31T17:16:05.966Z,3.24
2017-05-31T17:18:33.410Z,2.90
2017-05-31T17:21:00.771Z,2.60
2017-05-31T17:23:27.705Z,2.70
2017-05-31T17:25:54.986Z,3.46
2017-05-31T17:28:22.282Z,2.78
2017-05-31T17:30:49.623Z,2.84
2017-05-31T17:33:16.958Z,2.70
2017-05-31T17:35:44.312Z,2.90
2017-05-31T17:38:11.205Z,3.08
2017-05-31T17:40:38.544Z,2.88
2017-05-31T17:43:05.846Z,2.74
2017-05-31T17:45:33.133Z,4.26
2017-05-31T17:48:00.053Z,3.40
2017-05-31T17:50:27.412Z,3.58
2017-05-31T17:52:54.701Z,3.60
2017-05-31T17:55:21.653Z,3.70
2017-05-31T17:57:48.941Z,3.52
2017-05-31T18:00:16.218Z,2.98
2017-05-31T18:02:43.159Z,3.42
2017-05-31T18:05:10.444Z,2.60
2017-05-31T18:07:37.768Z,3.34
2017-05-31T18:10:05.122Z,3.32
2017-05-31T18:12:32.485Z,3.60
2017-05-31T18:14:59.425Z,3.44
2017-05-31T18:17:26.754Z,3.70
2017-05-31T18:19:54.045Z,4.18
2017-05-31T18:22:21.399Z,4.30
2017-05-31T18:24:48.730Z,4.24
2017-05-31T18:27:16.013Z,3.18
2017-05-31T18:29:43.294Z,3.86
2017-05-31T18:32:10.758Z,4.20
2017-05-31T18:34:38.685Z,3.32
2017-05-31T18:37:06.046Z,3.80
2017-05-31T18:39:33.401Z,4.52
2017-05-31T18:42:00.383Z,3.96
2017-05-31T18:44:27.718Z,3.92
2017-05-31T18:46:55.062Z,3.50
2017-05-31T18:49:22.409Z,5.16
2017-05-31T18:51:49.373Z,3.86
2017-05-31T18:54:16.406Z,4.04
2017-05-31T18:56:43.302Z,3.44
2017-05-31T18:59:10.594Z,3.30
2017-05-31T19:01:37.956Z,3.66
2017-05-31T19:04:05.236Z,4.08
2017-05-31T19:06:32.581Z,3.38
2017-05-31T19:08:59.930Z,3.88
2017-05-31T19:11:27.214Z,3.48
2017-05-31T19:13:54.499Z,4.18
2017-05-31T19:16:21.827Z,3.88
2017-05-31T19:18:49.142Z,3.60
2017-05-31T19:21:16.469Z,4.16
2017-05-31T19:23:43.853Z,4.24
2017-05-31T19:26:11.143Z,4.52
2017-05-31T19:28:38.513Z,4.00
2017-05-31T19:31:05.936Z,4.12
2017-05-31T19:33:32.820Z,3.80
2017-05-31T19:36:00.132Z,3.82
2017-05-31T19:38:27.528Z,3.70
2017-05-31T19:40:54.842Z,4.34
2017-05-31T19:43:22.219Z,4.82
2017-05-31T19:45:49.183Z,4.62
2017-05-31T19:48:16.465Z,4.58
2017-05-31T19:50:43.858Z,4.44
2017-05-31T19:53:11.214Z,4.88
2017-05-31T19:55:38.503Z,4.42
2017-05-31T19:58:05.786Z,4.86
2017-05-31T20:00:33.174Z,5.84
2017-05-31T20:03:00.453Z,4.90
2017-05-31T20:05:27.798Z,5.00
2017-05-31T20:07:54.839Z,5.20
2017-05-31T20:10:21.741Z,4.78
2017-05-31T20:12:49.036Z,4.48
2017-05-31T20:15:16.394Z,4.86
2017-05-31T20:17:43.746Z,4.60
2017-05-31T20:20:11.040Z,4.76
2017-05-31T20:22:38.462Z,5.10
2017-05-31T20:25:05.822Z,5.56
2017-05-31T20:27:33.102Z,5.90
2017-05-31T20:30:00.433Z,5.50
2017-05-31T20:32:27.783Z,5.30
2017-05-31T20:34:54.691Z,5.22
2017-05-31T20:37:22.081Z,5.10
2017-05-31T20:39:49.446Z,4.96
2017-05-31T20:42:16.727Z,7.50
2017-05-31T20:44:44.047Z,7.48
2017-05-31T20:47:11.410Z,5.06
2017-05-31T20:49:38.717Z,6.02
2017-05-31T20:52:06.065Z,5.36
2017-05-31T20:54:33.376Z,5.76
2017-05-31T20:57:00.765Z,5.48
2017-05-31T20:59:28.100Z,5.12
2017-05-31T21:01:55.439Z,5.70
2017-05-31T21:04:22.733Z,5.78
2017-05-31T21:06:50.261Z,5.42
2017-05-31T21:09:17.164Z,5.84
2017-05-31T21:11:44.446Z,4.86
2017-05-31T21:14:11.801Z,4.68
2017-05-31T21:16:39.094Z,4.64
2017-05-31T21:19:06.386Z,5.20
2017-05-31T21:21:33.746Z,5.12
2017-05-31T21:24:01.031Z,4.46
2017-05-31T21:26:28.317Z,4.32
2017-05-31T21:28:55.242Z,4.56
2017-05-31T21:31:22.561Z,4.20
2017-05-31T21:33:49.893Z,4.26
2017-05-31T21:36:17.234Z,4.22
2017-05-31T21:38:44.517Z,4.04
2017-05-31T21:41:11.909Z,4.46
2017-05-31T21:43:39.269Z,4.92
2017-05-31T21:46:06.559Z,4.16
2017-05-31T21:48:33.862Z,4.50
2017-05-31T21:51:01.193Z,3.80
2017-05-31T21:53:28.488Z,3.60
2017-05-31T21:55:55.850Z,4.36
2017-05-31T21:58:23.204Z,4.08
2017-05-31T22:00:50.526Z,4.00
2017-05-31T22:03:17.840Z,4.24
2017-05-31T22:05:45.134Z,3.86
2017-05-31T22:08:12.074Z,4.02
2017-05-31T22:10:39.362Z,3.70
2017-05-31T22:13:06.650Z,3.76
2017-05-31T22:15:34.073Z,3.74
2017-05-31T22:18:01.366Z,3.30
2017-05-31T22:20:28.649Z,4.32
2017-05-31T22:22:56.046Z,4.04
2017-05-31T22:25:23.334Z,3.20
2017-05-31T22:27:50.648Z,3.88
2017-05-31T22:30:18.002Z,3.44
2017-05-31T22:32:45.362Z,3.80
2017-05-31T22:35:12.734Z,3.70
2017-05-31T22:37:40.109Z,3.32
2017-05-31T22:40:07.386Z,4.12
2017-05-31T22:42:34.683Z,3.78
2017-05-31T22:45:02.188Z,3.24
2017-05-31T22:47:29.125Z,3.68
2017-05-31T22:49:56.453Z,3.38
2017-05-31T22:52:23.742Z,3.40
2017-05-31T22:54:50.681Z,3.40
2017-05-31T22:57:18.002Z,7.10
2017-05-31T22:59:45.350Z,3.40
2017-05-31T23:02:12.706Z,2.96
2017-05-31T23:04:40.063Z,3.62
2017-05-31T23:07:07.426Z,3.46
2017-05-31T23:09:34.378Z,3.12
2017-05-31T23:12:01.662Z,3.56
2017-05-31T23:14:28.557Z,4.02
2017-05-31T23:16:55.890Z,4.12
2017-05-31T23:19:23.280Z,3.54
2017-05-31T23:21:50.174Z,3.98
2017-05-31T23:24:17.586Z,3.62
2017-05-31T23:26:44.894Z,3.42
2017-05-31T23:29:12.205Z,3.46
2017-05-31T23:31:39.565Z,3.76
2017-05-31T23:34:06.965Z,3.30
2017-05-31T23:36:34.255Z,3.96
2017-05-31T23:39:01.230Z,3.70
2017-05-31T23:41:28.157Z,3.54
2017-05-31T23:43:55.057Z,4.70
2017-05-31T23:46:22.399Z,4.52
2017-05-31T23:48:49.714Z,4.32
2017-05-31T23:51:17.001Z,3.96
2017-05-31T23:53:44.330Z,3.50
2017-05-31T23:56:11.678Z,3.70
2017-05-31T23:58:38.968Z,4.24
